sensor_id;sensor_type;location;lat;lon;timestamp;temperature;humidity
69932;DHT22;57243;52.064;5.116;2023-03-04T02:50:52;18.40;57.70
69932;DHT22;57243;52.064;5.116;2023-03-04T02:53:19;18.40;57.60
69932;DHT22;57243;52.064;5.116;2023-03-04T02:55:46;18.40;57.50
69932;DHT22;57243;52.064;5.116;2023-03-04T02:58:12;18.40;57.60
69932;DHT22;57243;52.064;5.116;2023-03-04T03:00:38;18.40;57.60
69932;DHT22;57243;52.064;5.116;2023-03-04T03:03:04;18.40;57.60
69932;DHT22;57243;52.064;5.116;2023-03-04T03:05:32;18.30;57.60
69932;DHT22;57243;52.064;5.116;2023-03-04T03:07:58;18.30;57.50
69932;DHT22;57243;52.064;5.116;2023-03-04T03:10:24;18.40;57.50
69932;DHT22;57243;52.064;5.116;2023-03-04T03:12:50;18.40;57.60
69932;DHT22;57243;52.064;5.116;2023-03-04T03:15:16;18.40;57.50
69932;DHT22;57243;52.064;5.116;2023-03-04T03:17:41;18.40;57.50
69932;DHT22;57243;52.064;5.116;2023-03-04T03:20:09;18.40;57.50
69932;DHT22;57243;52.064;5.116;2023-03-04T03:22:35;18.40;57.40
69932;DHT22;57243;52.064;5.116;2023-03-04T03:25:01;18.30;57.40
69932;DHT22;57243;52.064;5.116;2023-03-04T03:27:26;18.40;57.40
69932;DHT22;57243;52.064;5.116;2023-03-04T03:29:52;18.40;57.40
69932;DHT22;57243;52.064;5.116;2023-03-04T03:32:17;18.40;57.40
69932;DHT22;57243;52.064;5.116;2023-03-04T03:34:43;18.40;57.40
69932;DHT22;57243;52.064;5.116;2023-03-04T03:37:09;18.40;57.30
69932;DHT22;57243;52.064;5.116;2023-03-04T03:39:35;18.40;57.30
69932;DHT22;57243;52.064;5.116;2023-03-04T03:42:00;18.40;57.30
69932;DHT22;57243;52.064;5.116;2023-03-04T03:44:26;18.40;57.30
69932;DHT22;57243;52.064;5.116;2023-03-04T03:46:51;18.40;57.30
69932;DHT22;57243;52.064;5.116;2023-03-04T03:49:17;18.40;57.30
69932;DHT22;57243;52.064;5.116;2023-03-04T03:51:42;18.40;57.30
69932;DHT22;57243;52.064;5.116;2023-03-04T03:54:09;18.40;57.10
69932;DHT22;57243;52.064;5.116;2023-03-04T03:56:34;18.40;57.20
69932;DHT22;57243;52.064;5.116;2023-03-04T03:59:00;18.40;57.30
69932;DHT22;57243;52.064;5.116;2023-03-04T04:01:25;18.40;57.30
69932;DHT22;57243;52.064;5.116;2023-03-04T04:03:51;18.40;57.30
69932;DHT22;57243;52.064;5.116;2023-03-04T04:06:17;18.40;57.20
69932;DHT22;57243;52.064;5.116;2023-03-04T04:08:43;18.40;57.20
69932;DHT22;57243;52.064;5.116;2023-03-04T04:11:09;18.40;57.10
69932;DHT22;57243;52.064;5.116;2023-03-04T04:13:35;18.40;57.10
69932;DHT22;57243;52.064;5.116;2023-03-04T04:16:01;18.40;57.20
69932;DHT22;57243;52.064;5.116;2023-03-04T04:18:26;18.40;57.10
69932;DHT22;57243;52.064;5.116;2023-03-04T04:20:52;18.40;57.00
69932;DHT22;57243;52.064;5.116;2023-03-04T04:23:18;18.40;57.00
69932;DHT22;57243;52.064;5.116;2023-03-04T04:25:43;18.40;56.90
69932;DHT22;57243;52.064;5.116;2023-03-04T04:28:09;18.40;57.00
69932;DHT22;57243;52.064;5.116;2023-03-04T04:30:35;18.40;57.10
69932;DHT22;57243;52.064;5.116;2023-03-04T04:33:00;18.40;57.00
69932;DHT22;57243;52.064;5.116;2023-03-04T04:35:31;18.40;56.90
69932;DHT22;57243;52.064;5.116;2023-03-04T04:37:57;18.40;56.90
69932;DHT22;57243;52.064;5.116;2023-03-04T04:40:23;18.40;57.00
69932;DHT22;57243;52.064;5.116;2023-03-04T04:42:48;18.40;56.90
69932;DHT22;57243;52.064;5.116;2023-03-04T04:45:14;18.40;56.90
69932;DHT22;57243;52.064;5.116;2023-03-04T04:47:39;18.40;56.90
69932;DHT22;57243;52.064;5.116;2023-03-04T04:50:06;18.40;56.90
69932;DHT22;57243;52.064;5.116;2023-03-04T04:52:31;18.40;56.90
69932;DHT22;57243;52.064;5.116;2023-03-04T04:54:57;18.40;56.90
69932;DHT22;57243;52.064;5.116;2023-03-04T04:57:23;18.40;56.90
69932;DHT22;57243;52.064;5.116;2023-03-04T04:59:48;18.40;56.80
69932;DHT22;57243;52.064;5.116;2023-03-04T05:02:14;18.40;56.80
69932;DHT22;57243;52.064;5.116;2023-03-04T05:04:40;18.40;56.80
69932;DHT22;57243;52.064;5.116;2023-03-04T05:07:05;18.40;56.80
69932;DHT22;57243;52.064;5.116;2023-03-04T05:09:31;18.40;56.80
69932;DHT22;57243;52.064;5.116;2023-03-04T05:11:57;18.40;56.80
69932;DHT22;57243;52.064;5.116;2023-03-04T05:14:23;18.40;56.80
69932;DHT22;57243;52.064;5.116;2023-03-04T05:16:49;18.40;56.70
69932;DHT22;57243;52.064;5.116;2023-03-04T05:19:17;18.40;56.80
69932;DHT22;57243;52.064;5.116;2023-03-04T05:21:43;18.40;56.80
69932;DHT22;57243;52.064;5.116;2023-03-04T05:24:08;18.40;56.70
69932;DHT22;57243;52.064;5.116;2023-03-04T05:26:34;18.40;56.70
69932;DHT22;57243;52.064;5.116;2023-03-04T05:29:00;18.40;56.70
69932;DHT22;57243;52.064;5.116;2023-03-04T05:31:25;18.40;56.70
69932;DHT22;57243;52.064;5.116;2023-03-04T05:33:51;18.40;56.70
69932;DHT22;57243;52.064;5.116;2023-03-04T05:36:16;18.40;56.70
69932;DHT22;57243;52.064;5.116;2023-03-04T05:38:42;18.40;56.70
69932;DHT22;57243;52.064;5.116;2023-03-04T05:41:07;18.40;56.70
69932;DHT22;57243;52.064;5.116;2023-03-04T05:43:34;18.40;56.70
69932;DHT22;57243;52.064;5.116;2023-03-04T05:46:03;18.40;56.60
69932;DHT22;57243;52.064;5.116;2023-03-04T05:48:29;18.40;56.60
69932;DHT22;57243;52.064;5.116;2023-03-04T05:50:56;18.40;56.60
69932;DHT22;57243;52.064;5.116;2023-03-04T05:53:22;18.40;56.60
69932;DHT22;57243;52.064;5.116;2023-03-04T05:55:49;18.40;56.70
69932;DHT22;57243;52.064;5.116;2023-03-04T05:58:15;18.40;56.70
69932;DHT22;57243;52.064;5.116;2023-03-04T06:00:41;18.40;56.70
69932;DHT22;57243;52.064;5.116;2023-03-04T06:03:17;18.40;56.70
69932;DHT22;57243;52.064;5.116;2023-03-04T06:05:43;18.40;56.80
69932;DHT22;57243;52.064;5.116;2023-03-04T06:08:10;18.40;56.80
69932;DHT22;57243;52.064;5.116;2023-03-04T06:10:38;18.40;56.80
69932;DHT22;57243;52.064;5.116;2023-03-04T06:13:04;18.40;56.70
69932;DHT22;57243;52.064;5.116;2023-03-04T06:15:30;18.40;56.70
69932;DHT22;57243;52.064;5.116;2023-03-04T06:17:55;18.40;56.70
69932;DHT22;57243;52.064;5.116;2023-03-04T06:20:21;18.40;56.70
69932;DHT22;57243;52.064;5.116;2023-03-04T06:22:46;18.40;56.30
69932;DHT22;57243;52.064;5.116;2023-03-04T06:25:12;18.40;56.40
69932;DHT22;57243;52.064;5.116;2023-03-04T06:27:38;18.40;56.40
69932;DHT22;57243;52.064;5.116;2023-03-04T06:30:04;18.40;56.50
69932;DHT22;57243;52.064;5.116;2023-03-04T06:32:30;18.40;56.70
69932;DHT22;57243;52.064;5.116;2023-03-04T06:34:55;18.40;56.80
69932;DHT22;57243;52.064;5.116;2023-03-04T06:37:21;18.50;56.80
69932;DHT22;57243;52.064;5.116;2023-03-04T06:39:47;18.50;57.00
69932;DHT22;57243;52.064;5.116;2023-03-04T06:42:13;18.50;57.10
69932;DHT22;57243;52.064;5.116;2023-03-04T06:44:39;18.60;57.40
69932;DHT22;57243;52.064;5.116;2023-03-04T06:47:04;18.60;57.30
69932;DHT22;57243;52.064;5.116;2023-03-04T06:49:30;18.60;57.30
69932;DHT22;57243;52.064;5.116;2023-03-04T06:51:55;18.60;57.40
69932;DHT22;57243;52.064;5.116;2023-03-04T06:54:21;18.60;57.60
69932;DHT22;57243;52.064;5.116;2023-03-04T06:56:47;18.70;57.50
69932;DHT22;57243;52.064;5.116;2023-03-04T06:59:12;18.70;57.40
69932;DHT22;57243;52.064;5.116;2023-03-04T07:01:38;18.70;57.70
69932;DHT22;57243;52.064;5.116;2023-03-04T07:04:04;18.70;57.90
69932;DHT22;57243;52.064;5.116;2023-03-04T07:06:30;18.70;58.20
69932;DHT22;57243;52.064;5.116;2023-03-04T07:08:56;18.70;58.40
69932;DHT22;57243;52.064;5.116;2023-03-04T07:11:22;18.80;58.10
69932;DHT22;57243;52.064;5.116;2023-03-04T07:13:49;18.80;58.00
69932;DHT22;57243;52.064;5.116;2023-03-04T07:16:18;18.80;58.20
69932;DHT22;57243;52.064;5.116;2023-03-04T07:18:44;18.80;58.40
69932;DHT22;57243;52.064;5.116;2023-03-04T07:21:10;18.90;58.20
69932;DHT22;57243;52.064;5.116;2023-03-04T07:23:36;18.90;58.20
69932;DHT22;57243;52.064;5.116;2023-03-04T07:26:03;18.90;58.20
69932;DHT22;57243;52.064;5.116;2023-03-04T07:28:29;19.00;58.40
69932;DHT22;57243;52.064;5.116;2023-03-04T07:30:54;18.90;58.60
69932;DHT22;57243;52.064;5.116;2023-03-04T07:33:20;18.90;58.50
69932;DHT22;57243;52.064;5.116;2023-03-04T07:35:46;18.90;58.90
69932;DHT22;57243;52.064;5.116;2023-03-04T07:38:11;18.90;59.30
69932;DHT22;57243;52.064;5.116;2023-03-04T07:40:37;19.00;59.10
69932;DHT22;57243;52.064;5.116;2023-03-04T07:43:02;19.00;59.30
69932;DHT22;57243;52.064;5.116;2023-03-04T07:45:28;19.00;59.20
69932;DHT22;57243;52.064;5.116;2023-03-04T07:47:54;19.00;59.60
69932;DHT22;57243;52.064;5.116;2023-03-04T07:50:21;19.00;59.40
69932;DHT22;57243;52.064;5.116;2023-03-04T07:52:48;19.00;59.90
69932;DHT22;57243;52.064;5.116;2023-03-04T07:55:16;19.10;59.40
69932;DHT22;57243;52.064;5.116;2023-03-04T07:57:42;19.10;59.10
69932;DHT22;57243;52.064;5.116;2023-03-04T08:00:10;19.10;58.90
69932;DHT22;57243;52.064;5.116;2023-03-04T08:02:36;19.10;59.00
69932;DHT22;57243;52.064;5.116;2023-03-04T08:05:02;19.00;58.70
69932;DHT22;57243;52.064;5.116;2023-03-04T08:07:28;19.10;58.90
69932;DHT22;57243;52.064;5.116;2023-03-04T08:09:53;19.00;58.70
69932;DHT22;57243;52.064;5.116;2023-03-04T08:12:19;19.00;58.70
69932;DHT22;57243;52.064;5.116;2023-03-04T08:14:45;19.00;58.80
69932;DHT22;57243;52.064;5.116;2023-03-04T08:17:10;19.00;58.70
69932;DHT22;57243;52.064;5.116;2023-03-04T08:19:39;19.00;59.30
69932;DHT22;57243;52.064;5.116;2023-03-04T08:22:05;19.10;59.20
69932;DHT22;57243;52.064;5.116;2023-03-04T08:24:31;19.00;58.80
69932;DHT22;57243;52.064;5.116;2023-03-04T08:26:56;19.00;59.30
69932;DHT22;57243;52.064;5.116;2023-03-04T08:29:23;19.00;59.60
69932;DHT22;57243;52.064;5.116;2023-03-04T08:31:50;19.00;59.60
69932;DHT22;57243;52.064;5.116;2023-03-04T08:34:19;19.00;59.90
69932;DHT22;57243;52.064;5.116;2023-03-04T08:36:45;19.10;60.10
69932;DHT22;57243;52.064;5.116;2023-03-04T08:39:12;19.00;59.80
69932;DHT22;57243;52.064;5.116;2023-03-04T08:41:38;19.00;60.10
69932;DHT22;57243;52.064;5.116;2023-03-04T08:44:04;19.00;60.40
69932;DHT22;57243;52.064;5.116;2023-03-04T08:46:32;19.00;60.40
69932;DHT22;57243;52.064;5.116;2023-03-04T08:48:58;19.00;60.70
69932;DHT22;57243;52.064;5.116;2023-03-04T08:51:24;19.00;61.00
69932;DHT22;57243;52.064;5.116;2023-03-04T08:53:50;19.00;60.70
69932;DHT22;57243;52.064;5.116;2023-03-04T08:56:16;18.90;59.70
69932;DHT22;57243;52.064;5.116;2023-03-04T08:58:42;18.90;57.90
69932;DHT22;57243;52.064;5.116;2023-03-04T09:01:10;18.80;58.20
69932;DHT22;57243;52.064;5.116;2023-03-04T09:03:36;18.80;58.40
69932;DHT22;57243;52.064;5.116;2023-03-04T09:06:02;18.80;58.40
69932;DHT22;57243;52.064;5.116;2023-03-04T09:08:28;18.80;58.70
69932;DHT22;57243;52.064;5.116;2023-03-04T09:10:54;18.80;59.10
69932;DHT22;57243;52.064;5.116;2023-03-04T09:13:21;18.80;59.20
69932;DHT22;57243;52.064;5.116;2023-03-04T09:15:50;18.80;59.40
69932;DHT22;57243;52.064;5.116;2023-03-04T09:18:19;18.80;59.70
69932;DHT22;57243;52.064;5.116;2023-03-04T09:20:45;18.80;59.80
69932;DHT22;57243;52.064;5.116;2023-03-04T09:23:11;18.80;60.10
69932;DHT22;57243;52.064;5.116;2023-03-04T09:25:37;18.80;60.60
69932;DHT22;57243;52.064;5.116;2023-03-04T09:28:04;18.80;60.80
69932;DHT22;57243;52.064;5.116;2023-03-04T09:30:30;18.80;60.70
69932;DHT22;57243;52.064;5.116;2023-03-04T09:32:56;18.80;60.60
69932;DHT22;57243;52.064;5.116;2023-03-04T09:35:22;18.90;60.70
69932;DHT22;57243;52.064;5.116;2023-03-04T09:37:47;18.90;60.70
69932;DHT22;57243;52.064;5.116;2023-03-04T09:40:19;18.90;61.00
69932;DHT22;57243;52.064;5.116;2023-03-04T09:42:49;18.90;60.70
69932;DHT22;57243;52.064;5.116;2023-03-04T09:45:19;18.90;60.80
69932;DHT22;57243;52.064;5.116;2023-03-04T09:47:46;18.90;60.80
69932;DHT22;57243;52.064;5.116;2023-03-04T09:50:13;18.90;61.20
69932;DHT22;57243;52.064;5.116;2023-03-04T10:03:31;18.80;60.30
69932;DHT22;57243;52.064;5.116;2023-03-04T10:06:07;18.70;59.70
69932;DHT22;57243;52.064;5.116;2023-03-04T10:08:39;18.70;60.00
69932;DHT22;57243;52.064;5.116;2023-03-04T10:11:20;18.70;60.20
69932;DHT22;57243;52.064;5.116;2023-03-04T10:16:43;18.80;60.10
69932;DHT22;57243;52.064;5.116;2023-03-04T10:21:42;18.80;59.80
69932;DHT22;57243;52.064;5.116;2023-03-04T10:24:14;18.80;59.80
69932;DHT22;57243;52.064;5.116;2023-03-04T10:26:44;18.70;59.00
69932;DHT22;57243;52.064;5.116;2023-03-04T10:29:18;18.70;59.00
69932;DHT22;57243;52.064;5.116;2023-03-04T10:31:45;18.70;58.90
69932;DHT22;57243;52.064;5.116;2023-03-04T10:34:14;18.70;57.30
69932;DHT22;57243;52.064;5.116;2023-03-04T10:39:18;18.60;55.50
69932;DHT22;57243;52.064;5.116;2023-03-04T10:41:57;18.50;55.70
69932;DHT22;57243;52.064;5.116;2023-03-04T10:44:23;18.50;55.50
69932;DHT22;57243;52.064;5.116;2023-03-04T10:46:52;18.40;55.50
69932;DHT22;57243;52.064;5.116;2023-03-04T10:49:18;18.40;55.60
69932;DHT22;57243;52.064;5.116;2023-03-04T10:51:50;18.40;56.00
69932;DHT22;57243;52.064;5.116;2023-03-04T10:54:24;18.40;56.20
69932;DHT22;57243;52.064;5.116;2023-03-04T10:59:32;18.40;55.90
69932;DHT22;57243;52.064;5.116;2023-03-04T11:02:05;18.40;55.90
69932;DHT22;57243;52.064;5.116;2023-03-04T11:04:35;18.40;55.30
69932;DHT22;57243;52.064;5.116;2023-03-04T11:07:00;18.40;55.30
69932;DHT22;57243;52.064;5.116;2023-03-04T11:09:29;18.40;54.80
69932;DHT22;57243;52.064;5.116;2023-03-04T11:12:00;18.50;54.70
69932;DHT22;57243;52.064;5.116;2023-03-04T11:14:45;18.50;55.30
69932;DHT22;57243;52.064;5.116;2023-03-04T11:17:19;18.60;55.40
69932;DHT22;57243;52.064;5.116;2023-03-04T11:20:03;18.60;55.00
69932;DHT22;57243;52.064;5.116;2023-03-04T11:22:30;18.60;54.70
69932;DHT22;57243;52.064;5.116;2023-03-04T11:25:04;18.60;55.20
69932;DHT22;57243;52.064;5.116;2023-03-04T11:27:41;18.70;55.30
69932;DHT22;57243;52.064;5.116;2023-03-04T11:30:33;18.70;55.40
69932;DHT22;57243;52.064;5.116;2023-03-04T11:33:17;18.70;55.40
69932;DHT22;57243;52.064;5.116;2023-03-04T11:35:53;18.70;56.40
69932;DHT22;57243;52.064;5.116;2023-03-04T11:38:47;18.70;56.90
69932;DHT22;57243;52.064;5.116;2023-03-04T11:41:24;18.80;56.60
69932;DHT22;57243;52.064;5.116;2023-03-04T11:43:52;18.80;57.60
69932;DHT22;57243;52.064;5.116;2023-03-04T11:46:37;18.90;57.30
69932;DHT22;57243;52.064;5.116;2023-03-04T11:54:31;19.10;57.60
69932;DHT22;57243;52.064;5.116;2023-03-04T11:57:22;19.20;57.70
69932;DHT22;57243;52.064;5.116;2023-03-04T12:06:06;19.20;57.60
69932;DHT22;57243;52.064;5.116;2023-03-04T12:14:22;19.20;58.50
69932;DHT22;57243;52.064;5.116;2023-03-04T12:17:00;19.20;57.50
69932;DHT22;57243;52.064;5.116;2023-03-04T12:19:50;19.30;57.90
69932;DHT22;57243;52.064;5.116;2023-03-04T12:22:33;19.20;57.50
69932;DHT22;57243;52.064;5.116;2023-03-04T12:44:26;18.80;56.60
69932;DHT22;57243;52.064;5.116;2023-03-04T12:54:52;18.80;58.50
69932;DHT22;57243;52.064;5.116;2023-03-04T12:57:24;18.80;58.40
69932;DHT22;57243;52.064;5.116;2023-03-04T13:00:07;18.80;58.70
69932;DHT22;57243;52.064;5.116;2023-03-04T13:08:29;18.70;58.30
69932;DHT22;57243;52.064;5.116;2023-03-04T13:11:31;18.70;58.30
69932;DHT22;57243;52.064;5.116;2023-03-04T13:14:01;18.70;57.50
69932;DHT22;57243;52.064;5.116;2023-03-04T13:16:31;18.60;56.50
69932;DHT22;57243;52.064;5.116;2023-03-04T13:18:58;18.60;56.00
69932;DHT22;57243;52.064;5.116;2023-03-04T13:21:31;18.60;56.10
69932;DHT22;57243;52.064;5.116;2023-03-04T13:23:59;18.60;56.60
69932;DHT22;57243;52.064;5.116;2023-03-04T13:26:32;18.70;56.40
69932;DHT22;57243;52.064;5.116;2023-03-04T13:32:10;18.70;56.20
69932;DHT22;57243;52.064;5.116;2023-03-04T13:34:51;18.60;56.20
69932;DHT22;57243;52.064;5.116;2023-03-04T13:37:33;18.60;55.90
69932;DHT22;57243;52.064;5.116;2023-03-04T13:40:33;18.50;55.50
69932;DHT22;57243;52.064;5.116;2023-03-04T13:43:23;18.50;55.50
69932;DHT22;57243;52.064;5.116;2023-03-04T13:45:48;18.50;55.30
69932;DHT22;57243;52.064;5.116;2023-03-04T13:48:31;18.50;55.00
69932;DHT22;57243;52.064;5.116;2023-03-04T13:50:57;18.40;54.90
69932;DHT22;57243;52.064;5.116;2023-03-04T13:53:54;18.40;54.70
69932;DHT22;57243;52.064;5.116;2023-03-04T13:56:32;18.40;54.70
69932;DHT22;57243;52.064;5.116;2023-03-04T14:04:45;18.30;54.20
69932;DHT22;57243;52.064;5.116;2023-03-04T14:07:35;18.30;53.50
69932;DHT22;57243;52.064;5.116;2023-03-04T14:10:21;18.30;54.00
69932;DHT22;57243;52.064;5.116;2023-03-04T14:12:55;18.30;53.80
69932;DHT22;57243;52.064;5.116;2023-03-04T14:15:24;18.30;53.70
69932;DHT22;57243;52.064;5.116;2023-03-04T14:17:53;18.20;53.40
69932;DHT22;57243;52.064;5.116;2023-03-04T14:20:32;18.20;53.20
69932;DHT22;57243;52.064;5.116;2023-03-04T14:23:02;18.20;53.30
69932;DHT22;57243;52.064;5.116;2023-03-04T14:25:30;18.20;53.40
69932;DHT22;57243;52.064;5.116;2023-03-04T14:28:12;18.20;53.40
69932;DHT22;57243;52.064;5.116;2023-03-04T14:30:42;18.20;53.00
69932;DHT22;57243;52.064;5.116;2023-03-04T14:33:18;18.20;52.70
69932;DHT22;57243;52.064;5.116;2023-03-04T14:35:48;18.20;52.90
69932;DHT22;57243;52.064;5.116;2023-03-04T14:41:21;18.10;52.90
69932;DHT22;57243;52.064;5.116;2023-03-04T14:43:59;18.20;53.00
69932;DHT22;57243;52.064;5.116;2023-03-04T14:46:32;18.10;52.80
69932;DHT22;57243;52.064;5.116;2023-03-04T14:48:59;18.10;52.50
69932;DHT22;57243;52.064;5.116;2023-03-04T14:51:42;18.10;52.40
69932;DHT22;57243;52.064;5.116;2023-03-04T14:54:32;18.10;52.60
69932;DHT22;57243;52.064;5.116;2023-03-04T14:57:00;18.10;52.60
69932;DHT22;57243;52.064;5.116;2023-03-04T14:59:31;18.10;52.20
69932;DHT22;57243;52.064;5.116;2023-03-04T15:04:43;18.10;52.60
69932;DHT22;57243;52.064;5.116;2023-03-04T15:07:16;18.10;52.70
69932;DHT22;57243;52.064;5.116;2023-03-04T15:09:52;18.10;52.50
69932;DHT22;57243;52.064;5.116;2023-03-04T15:12:24;18.00;52.40
69932;DHT22;57243;52.064;5.116;2023-03-04T15:14:57;18.10;52.60
69932;DHT22;57243;52.064;5.116;2023-03-04T15:17:27;18.10;52.60
69932;DHT22;57243;52.064;5.116;2023-03-04T15:25:12;18.00;52.80
69932;DHT22;57243;52.064;5.116;2023-03-04T15:27:40;18.00;52.60
69932;DHT22;57243;52.064;5.116;2023-03-04T15:30:12;18.00;52.90
69932;DHT22;57243;52.064;5.116;2023-03-04T15:32:39;18.00;53.00
69932;DHT22;57243;52.064;5.116;2023-03-04T15:35:06;18.00;52.90
69932;DHT22;57243;52.064;5.116;2023-03-04T15:37:33;18.00;53.00
69932;DHT22;57243;52.064;5.116;2023-03-04T15:39:58;18.00;54.10
69932;DHT22;57243;52.064;5.116;2023-03-04T15:42:24;18.10;55.10
69932;DHT22;57243;52.064;5.116;2023-03-04T15:44:49;18.20;56.00
69932;DHT22;57243;52.064;5.116;2023-03-04T15:47:15;18.20;56.40
69932;DHT22;57243;52.064;5.116;2023-03-04T15:49:42;18.20;56.30
69932;DHT22;57243;52.064;5.116;2023-03-04T15:52:26;18.30;56.20
69932;DHT22;57243;52.064;5.116;2023-03-04T15:54:51;18.30;56.20
69932;DHT22;57243;52.064;5.116;2023-03-04T15:57:23;18.30;55.90
69932;DHT22;57243;52.064;5.116;2023-03-04T15:59:50;18.40;56.30
69932;DHT22;57243;52.064;5.116;2023-03-04T16:02:22;18.40;56.40
69932;DHT22;57243;52.064;5.116;2023-03-04T16:04:48;18.40;56.40
69932;DHT22;57243;52.064;5.116;2023-03-04T16:07:23;18.40;56.70
69932;DHT22;57243;52.064;5.116;2023-03-04T16:09:57;18.50;57.40
69932;DHT22;57243;52.064;5.116;2023-03-04T16:12:25;18.50;57.50
69932;DHT22;57243;52.064;5.116;2023-03-04T16:14:51;18.50;57.80
69932;DHT22;57243;52.064;5.116;2023-03-04T16:17:17;18.50;57.60
69932;DHT22;57243;52.064;5.116;2023-03-04T16:19:44;18.50;57.60
69932;DHT22;57243;52.064;5.116;2023-03-04T16:22:14;18.60;56.90
69932;DHT22;57243;52.064;5.116;2023-03-04T16:24:42;18.60;57.30
69932;DHT22;57243;52.064;5.116;2023-03-04T16:27:18;18.50;57.20
69932;DHT22;57243;52.064;5.116;2023-03-04T16:29:44;18.50;57.20
69932;DHT22;57243;52.064;5.116;2023-03-04T16:32:10;18.50;57.00
69932;DHT22;57243;52.064;5.116;2023-03-04T16:34:35;18.50;56.70
69932;DHT22;57243;52.064;5.116;2023-03-04T16:37:06;18.60;56.70
69932;DHT22;57243;52.064;5.116;2023-03-04T16:39:31;18.50;56.40
69932;DHT22;57243;52.064;5.116;2023-03-04T16:41:57;18.50;56.10
69932;DHT22;57243;52.064;5.116;2023-03-04T16:44:23;18.50;56.10
69932;DHT22;57243;52.064;5.116;2023-03-04T16:46:49;18.50;56.10
69932;DHT22;57243;52.064;5.116;2023-03-04T16:49:15;18.50;56.20
69932;DHT22;57243;52.064;5.116;2023-03-04T16:51:44;18.50;55.80
69932;DHT22;57243;52.064;5.116;2023-03-04T16:54:18;18.50;56.00
69932;DHT22;57243;52.064;5.116;2023-03-04T16:56:48;18.50;55.90
69932;DHT22;57243;52.064;5.116;2023-03-04T16:59:15;18.50;55.90
69932;DHT22;57243;52.064;5.116;2023-03-04T17:01:41;18.50;55.40
69932;DHT22;57243;52.064;5.116;2023-03-04T17:04:07;18.50;55.30
69932;DHT22;57243;52.064;5.116;2023-03-04T17:06:33;18.50;55.30
69932;DHT22;57243;52.064;5.116;2023-03-04T17:09:03;18.50;55.10
69932;DHT22;57243;52.064;5.116;2023-03-04T17:11:29;18.50;55.60
69932;DHT22;57243;52.064;5.116;2023-03-04T17:13:55;18.50;55.60
69932;DHT22;57243;52.064;5.116;2023-03-04T17:16:20;18.50;55.40
69932;DHT22;57243;52.064;5.116;2023-03-04T17:18:47;18.50;55.30
69932;DHT22;57243;52.064;5.116;2023-03-04T17:21:16;18.50;55.30
69932;DHT22;57243;52.064;5.116;2023-03-04T17:23:42;18.50;55.10
69932;DHT22;57243;52.064;5.116;2023-03-04T17:26:08;18.40;55.70
69932;DHT22;57243;52.064;5.116;2023-03-04T17:28:34;18.40;55.40
69932;DHT22;57243;52.064;5.116;2023-03-04T17:31:00;18.40;55.40
69932;DHT22;57243;52.064;5.116;2023-03-04T17:33:26;18.30;55.60
69932;DHT22;57243;52.064;5.116;2023-03-04T17:35:51;18.30;55.50
69932;DHT22;57243;52.064;5.116;2023-03-04T17:38:17;18.30;55.40
69932;DHT22;57243;52.064;5.116;2023-03-04T17:40:43;18.30;55.00
69932;DHT22;57243;52.064;5.116;2023-03-04T17:43:09;18.30;54.90
69932;DHT22;57243;52.064;5.116;2023-03-04T17:45:42;18.30;55.50
69932;DHT22;57243;52.064;5.116;2023-03-04T17:48:09;18.30;54.80
69932;DHT22;57243;52.064;5.116;2023-03-04T17:50:59;18.40;55.00
69932;DHT22;57243;52.064;5.116;2023-03-04T17:53:25;18.40;54.90
69932;DHT22;57243;52.064;5.116;2023-03-04T17:55:57;18.40;55.30
69932;DHT22;57243;52.064;5.116;2023-03-04T17:58:25;18.40;55.00
69932;DHT22;57243;52.064;5.116;2023-03-04T18:00:52;18.40;55.10
69932;DHT22;57243;52.064;5.116;2023-03-04T18:03:18;18.40;55.60
69932;DHT22;57243;52.064;5.116;2023-03-04T18:05:44;18.40;55.70
69932;DHT22;57243;52.064;5.116;2023-03-04T18:08:10;18.40;55.70
69932;DHT22;57243;52.064;5.116;2023-03-04T18:10:36;18.40;55.70
69932;DHT22;57243;52.064;5.116;2023-03-04T18:13:02;18.40;55.60
69932;DHT22;57243;52.064;5.116;2023-03-04T18:15:28;18.40;55.50
69932;DHT22;57243;52.064;5.116;2023-03-04T18:17:53;18.40;55.00
69932;DHT22;57243;52.064;5.116;2023-03-04T18:20:19;18.40;54.00
69932;DHT22;57243;52.064;5.116;2023-03-04T18:22:44;18.40;54.70
69932;DHT22;57243;52.064;5.116;2023-03-04T18:25:10;18.30;55.00
69932;DHT22;57243;52.064;5.116;2023-03-04T18:27:40;18.30;54.90
69932;DHT22;57243;52.064;5.116;2023-03-04T18:30:10;18.30;55.20
69932;DHT22;57243;52.064;5.116;2023-03-04T18:32:37;18.30;55.00
69932;DHT22;57243;52.064;5.116;2023-03-04T18:35:06;18.40;55.10
69932;DHT22;57243;52.064;5.116;2023-03-04T18:37:32;18.40;55.40
69932;DHT22;57243;52.064;5.116;2023-03-04T18:39:58;18.40;56.10
69932;DHT22;57243;52.064;5.116;2023-03-04T18:42:23;18.40;56.60
69932;DHT22;57243;52.064;5.116;2023-03-04T18:44:49;18.40;56.80
69932;DHT22;57243;52.064;5.116;2023-03-04T18:47:15;18.50;57.20
69932;DHT22;57243;52.064;5.116;2023-03-04T18:49:42;18.50;57.40
69932;DHT22;57243;52.064;5.116;2023-03-04T18:52:10;18.60;57.00
69932;DHT22;57243;52.064;5.116;2023-03-04T18:54:35;18.60;57.40
69932;DHT22;57243;52.064;5.116;2023-03-04T18:57:09;18.60;57.70
69932;DHT22;57243;52.064;5.116;2023-03-04T18:59:41;18.60;57.30
69932;DHT22;57243;52.064;5.116;2023-03-04T19:02:32;18.60;57.60
69932;DHT22;57243;52.064;5.116;2023-03-04T19:05:22;18.60;57.60
69932;DHT22;57243;52.064;5.116;2023-03-04T19:07:47;18.60;57.20
69932;DHT22;57243;52.064;5.116;2023-03-04T19:10:13;18.60;57.20
69932;DHT22;57243;52.064;5.116;2023-03-04T19:12:39;18.60;57.20
69932;DHT22;57243;52.064;5.116;2023-03-04T19:15:06;18.60;56.90
69932;DHT22;57243;52.064;5.116;2023-03-04T19:17:33;18.60;56.40
69932;DHT22;57243;52.064;5.116;2023-03-04T19:20:00;18.60;56.50
69932;DHT22;57243;52.064;5.116;2023-03-04T19:22:26;18.60;56.60
69932;DHT22;57243;52.064;5.116;2023-03-04T19:24:52;18.60;56.70
69932;DHT22;57243;52.064;5.116;2023-03-04T19:27:17;18.50;56.70
69932;DHT22;57243;52.064;5.116;2023-03-04T19:29:43;18.50;55.90
69932;DHT22;57243;52.064;5.116;2023-03-04T19:32:09;18.50;56.00
69932;DHT22;57243;52.064;5.116;2023-03-04T19:34:34;18.50;56.30
69932;DHT22;57243;52.064;5.116;2023-03-04T19:37:00;18.50;56.60
69932;DHT22;57243;52.064;5.116;2023-03-04T19:39:25;18.50;56.30
69932;DHT22;57243;52.064;5.116;2023-03-04T19:41:51;18.50;56.30
69932;DHT22;57243;52.064;5.116;2023-03-04T19:44:17;18.50;56.50
69932;DHT22;57243;52.064;5.116;2023-03-04T19:46:43;18.50;57.00
69932;DHT22;57243;52.064;5.116;2023-03-04T19:49:08;18.50;57.40
69932;DHT22;57243;52.064;5.116;2023-03-04T19:51:35;18.50;57.70
69932;DHT22;57243;52.064;5.116;2023-03-04T19:54:01;18.50;57.80
69932;DHT22;57243;52.064;5.116;2023-03-04T19:56:26;18.50;57.70
69932;DHT22;57243;52.064;5.116;2023-03-04T19:58:54;18.50;57.70
69932;DHT22;57243;52.064;5.116;2023-03-04T20:01:30;18.50;57.90